sensor_id;sensor_type;location;lat;lon;timestamp;P1;P2;P0
73517;PMS5003;61766;60.318;25.044;2022-10-16T00:01:51;48;43;
73517;PMS5003;61766;60.318;25.044;2022-10-16T00:04:16;42;42;
73517;PMS5003;61766;60.318;25.044;2022-10-16T00:06:42;46;44;
73517;PMS5003;61766;60.318;25.044;2022-10-16T00:09:07;45;44;
73517;PMS5003;61766;60.318;25.044;2022-10-16T00:11:33;43;39;
73517;PMS5003;61766;60.318;25.044;2022-10-16T00:13:58;44;42;
73517;PMS5003;61766;60.318;25.044;2022-10-16T00:16:22;45;43;
73517;PMS5003;61766;60.318;25.044;2022-10-16T00:18:48;43;39;
73517;PMS5003;61766;60.318;25.044;2022-10-16T00:21:15;50;48;
73517;PMS5003;61766;60.318;25.044;2022-10-16T00:23:40;43;41;
73517;PMS5003;61766;60.318;25.044;2022-10-16T00:26:06;42;42;
73517;PMS5003;61766;60.318;25.044;2022-10-16T00:28:31;39;39;
73517;PMS5003;61766;60.318;25.044;2022-10-16T00:30:56;47;46;
73517;PMS5003;61766;60.318;25.044;2022-10-16T00:33:22;44;41;
73517;PMS5003;61766;60.318;25.044;2022-10-16T00:35:47;41;41;
73517;PMS5003;61766;60.318;25.044;2022-10-16T00:38:13;53;49;
73517;PMS5003;61766;60.318;25.044;2022-10-16T00:40:38;48;42;
73517;PMS5003;61766;60.318;25.044;2022-10-16T00:43:07;49;43;
73517;PMS5003;61766;60.318;25.044;2022-10-16T00:45:28;40;39;
73517;PMS5003;61766;60.318;25.044;2022-10-16T00:47:54;45;45;
73517;PMS5003;61766;60.318;25.044;2022-10-16T00:50:22;47;40;
73517;PMS5003;61766;60.318;25.044;2022-10-16T00:52:46;47;47;
73517;PMS5003;61766;60.318;25.044;2022-10-16T00:55:10;42;42;
73517;PMS5003;61766;60.318;25.044;2022-10-16T00:57:36;45;43;
73517;PMS5003;61766;60.318;25.044;2022-10-16T01:00:02;46;44;
73517;PMS5003;61766;60.318;25.044;2022-10-16T01:02:27;47;45;
73517;PMS5003;61766;60.318;25.044;2022-10-16T01:04:52;45;42;
73517;PMS5003;61766;60.318;25.044;2022-10-16T01:07:21;49;46;
73517;PMS5003;61766;60.318;25.044;2022-10-16T01:09:47;47;46;
73517;PMS5003;61766;60.318;25.044;2022-10-16T01:12:09;50;48;
73517;PMS5003;61766;60.318;25.044;2022-10-16T01:14:36;46;45;
73517;PMS5003;61766;60.318;25.044;2022-10-16T01:17:01;50;48;
73517;PMS5003;61766;60.318;25.044;2022-10-16T01:19:30;50;45;
73517;PMS5003;61766;60.318;25.044;2022-10-16T01:21:51;47;45;
73517;PMS5003;61766;60.318;25.044;2022-10-16T01:24:17;50;49;
73517;PMS5003;61766;60.318;25.044;2022-10-16T01:26:47;51;50;
73517;PMS5003;61766;60.318;25.044;2022-10-16T01:29:08;49;48;
73517;PMS5003;61766;60.318;25.044;2022-10-16T01:31:34;52;50;
73517;PMS5003;61766;60.318;25.044;2022-10-16T01:34:00;54;52;
73517;PMS5003;61766;60.318;25.044;2022-10-16T01:36:25;42;41;
73517;PMS5003;61766;60.318;25.044;2022-10-16T01:38:49;55;49;
73517;PMS5003;61766;60.318;25.044;2022-10-16T01:41:15;46;45;
73517;PMS5003;61766;60.318;25.044;2022-10-16T01:43:42;46;43;
73517;PMS5003;61766;60.318;25.044;2022-10-16T01:46:06;59;57;
73517;PMS5003;61766;60.318;25.044;2022-10-16T01:48:31;51;47;
73517;PMS5003;61766;60.318;25.044;2022-10-16T01:50:57;47;45;
73517;PMS5003;61766;60.318;25.044;2022-10-16T01:53:22;50;49;
73517;PMS5003;61766;60.318;25.044;2022-10-16T01:55:47;54;52;
73517;PMS5003;61766;60.318;25.044;2022-10-16T01:58:12;57;56;
73517;PMS5003;61766;60.318;25.044;2022-10-16T02:00:38;57;55;
73517;PMS5003;61766;60.318;25.044;2022-10-16T02:03:03;58;52;
73517;PMS5003;61766;60.318;25.044;2022-10-16T02:05:28;55;53;
73517;PMS5003;61766;60.318;25.044;2022-10-16T02:07:53;57;55;
73517;PMS5003;61766;60.318;25.044;2022-10-16T02:10:19;54;51;
73517;PMS5003;61766;60.318;25.044;2022-10-16T02:12:45;56;55;
73517;PMS5003;61766;60.318;25.044;2022-10-16T02:15:10;52;52;
73517;PMS5003;61766;60.318;25.044;2022-10-16T02:17:35;59;56;
73517;PMS5003;61766;60.318;25.044;2022-10-16T02:20:01;58;56;
73517;PMS5003;61766;60.318;25.044;2022-10-16T02:22:27;57;55;
73517;PMS5003;61766;60.318;25.044;2022-10-16T02:24:53;52;50;
73517;PMS5003;61766;60.318;25.044;2022-10-16T02:27:17;63;62;
73517;PMS5003;61766;60.318;25.044;2022-10-16T02:29:43;60;54;
73517;PMS5003;61766;60.318;25.044;2022-10-16T02:32:08;62;60;
73517;PMS5003;61766;60.318;25.044;2022-10-16T02:34:34;50;48;
73517;PMS5003;61766;60.318;25.044;2022-10-16T02:36:59;56;53;
73517;PMS5003;61766;60.318;25.044;2022-10-16T02:39:24;59;55;
73517;PMS5003;61766;60.318;25.044;2022-10-16T02:41:50;55;55;
73517;PMS5003;61766;60.318;25.044;2022-10-16T02:44:15;61;60;
73517;PMS5003;61766;60.318;25.044;2022-10-16T02:46:41;58;56;
73517;PMS5003;61766;60.318;25.044;2022-10-16T02:49:06;61;58;
73517;PMS5003;61766;60.318;25.044;2022-10-16T02:51:32;54;52;
73517;PMS5003;61766;60.318;25.044;2022-10-16T02:53:57;58;54;
73517;PMS5003;61766;60.318;25.044;2022-10-16T02:56:23;59;54;
73517;PMS5003;61766;60.318;25.044;2022-10-16T02:58:48;58;55;
73517;PMS5003;61766;60.318;25.044;2022-10-16T03:01:13;57;52;
73517;PMS5003;61766;60.318;25.044;2022-10-16T03:03:39;57;55;
73517;PMS5003;61766;60.318;25.044;2022-10-16T03:06:04;49;49;
73517;PMS5003;61766;60.318;25.044;2022-10-16T03:08:30;57;51;
73517;PMS5003;61766;60.318;25.044;2022-10-16T03:10:55;53;51;
73517;PMS5003;61766;60.318;25.044;2022-10-16T03:13:20;48;47;
73517;PMS5003;61766;60.318;25.044;2022-10-16T03:15:46;55;49;
73517;PMS5003;61766;60.318;25.044;2022-10-16T03:18:11;44;44;
73517;PMS5003;61766;60.318;25.044;2022-10-16T03:20:37;43;41;
73517;PMS5003;61766;60.318;25.044;2022-10-16T03:23:02;45;43;
73517;PMS5003;61766;60.318;25.044;2022-10-16T03:25:27;45;44;
73517;PMS5003;61766;60.318;25.044;2022-10-16T03:27:53;39;36;
73517;PMS5003;61766;60.318;25.044;2022-10-16T03:30:18;39;38;
73517;PMS5003;61766;60.318;25.044;2022-10-16T03:32:43;40;39;
73517;PMS5003;61766;60.318;25.044;2022-10-16T03:35:09;42;41;
73517;PMS5003;61766;60.318;25.044;2022-10-16T03:37:34;43;42;
73517;PMS5003;61766;60.318;25.044;2022-10-16T03:39:59;50;47;
73517;PMS5003;61766;60.318;25.044;2022-10-16T03:42:25;42;40;
73517;PMS5003;61766;60.318;25.044;2022-10-16T03:44:50;43;43;
73517;PMS5003;61766;60.318;25.044;2022-10-16T03:47:16;44;42;
73517;PMS5003;61766;60.318;25.044;2022-10-16T03:49:41;46;44;
73517;PMS5003;61766;60.318;25.044;2022-10-16T03:52:07;44;44;
73517;PMS5003;61766;60.318;25.044;2022-10-16T03:54:32;44;43;
73517;PMS5003;61766;60.318;25.044;2022-10-16T03:56:57;42;42;
73517;PMS5003;61766;60.318;25.044;2022-10-16T03:59:23;50;47;
73517;PMS5003;61766;60.318;25.044;2022-10-16T04:01:48;45;43;
73517;PMS5003;61766;60.318;25.044;2022-10-16T04:04:13;38;37;
73517;PMS5003;61766;60.318;25.044;2022-10-16T04:06:39;49;46;
73517;PMS5003;61766;60.318;25.044;2022-10-16T04:09:04;50;45;
73517;PMS5003;61766;60.318;25.044;2022-10-16T04:11:30;38;37;
73517;PMS5003;61766;60.318;25.044;2022-10-16T04:13:55;42;41;
73517;PMS5003;61766;60.318;25.044;2022-10-16T04:16:21;41;41;
73517;PMS5003;61766;60.318;25.044;2022-10-16T04:18:46;40;37;
73517;PMS5003;61766;60.318;25.044;2022-10-16T04:21:12;46;45;
73517;PMS5003;61766;60.318;25.044;2022-10-16T04:23:38;46;42;
73517;PMS5003;61766;60.318;25.044;2022-10-16T04:26:03;43;40;
73517;PMS5003;61766;60.318;25.044;2022-10-16T04:28:29;40;38;
73517;PMS5003;61766;60.318;25.044;2022-10-16T04:30:54;50;46;
73517;PMS5003;61766;60.318;25.044;2022-10-16T04:33:20;38;35;
73517;PMS5003;61766;60.318;25.044;2022-10-16T04:35:46;36;36;
73517;PMS5003;61766;60.318;25.044;2022-10-16T04:38:11;39;39;
73517;PMS5003;61766;60.318;25.044;2022-10-16T04:40:36;38;38;
73517;PMS5003;61766;60.318;25.044;2022-10-16T04:43:01;37;35;
73517;PMS5003;61766;60.318;25.044;2022-10-16T04:45:26;29;27;
73517;PMS5003;61766;60.318;25.044;2022-10-16T04:47:52;40;38;
73517;PMS5003;61766;60.318;25.044;2022-10-16T04:50:17;39;38;
73517;PMS5003;61766;60.318;25.044;2022-10-16T04:52:43;34;31;
73517;PMS5003;61766;60.318;25.044;2022-10-16T04:55:08;29;28;
73517;PMS5003;61766;60.318;25.044;2022-10-16T04:57:34;35;34;
73517;PMS5003;61766;60.318;25.044;2022-10-16T04:59:59;36;35;
73517;PMS5003;61766;60.318;25.044;2022-10-16T05:02:24;33;30;
73517;PMS5003;61766;60.318;25.044;2022-10-16T05:04:50;29;29;
73517;PMS5003;61766;60.318;25.044;2022-10-16T05:07:15;28;26;
73517;PMS5003;61766;60.318;25.044;2022-10-16T05:09:40;28;26;
73517;PMS5003;61766;60.318;25.044;2022-10-16T05:12:06;24;24;
73517;PMS5003;61766;60.318;25.044;2022-10-16T05:14:31;25;25;
73517;PMS5003;61766;60.318;25.044;2022-10-16T05:16:57;29;29;
73517;PMS5003;61766;60.318;25.044;2022-10-16T05:19:22;35;33;
73517;PMS5003;61766;60.318;25.044;2022-10-16T05:21:48;23;23;
73517;PMS5003;61766;60.318;25.044;2022-10-16T05:24:14;31;30;
73517;PMS5003;61766;60.318;25.044;2022-10-16T05:26:40;29;28;
73517;PMS5003;61766;60.318;25.044;2022-10-16T05:29:05;26;26;
73517;PMS5003;61766;60.318;25.044;2022-10-16T05:31:31;28;27;
73517;PMS5003;61766;60.318;25.044;2022-10-16T05:33:57;25;25;
73517;PMS5003;61766;60.318;25.044;2022-10-16T05:36:21;34;34;
73517;PMS5003;61766;60.318;25.044;2022-10-16T05:38:50;30;30;
73517;PMS5003;61766;60.318;25.044;2022-10-16T05:41:11;26;25;
73517;PMS5003;61766;60.318;25.044;2022-10-16T05:43:37;29;28;
73517;PMS5003;61766;60.318;25.044;2022-10-16T05:46:04;32;32;
73517;PMS5003;61766;60.318;25.044;2022-10-16T05:48:28;31;31;
73517;PMS5003;61766;60.318;25.044;2022-10-16T05:50:57;27;25;
73517;PMS5003;61766;60.318;25.044;2022-10-16T05:53:19;30;27;
73517;PMS5003;61766;60.318;25.044;2022-10-16T05:55:44;25;24;
73517;PMS5003;61766;60.318;25.044;2022-10-16T05:58:09;31;31;
73517;PMS5003;61766;60.318;25.044;2022-10-16T06:00:34;29;27;
73517;PMS5003;61766;60.318;25.044;2022-10-16T06:03:00;33;33;
73517;PMS5003;61766;60.318;25.044;2022-10-16T06:05:26;27;25;
73517;PMS5003;61766;60.318;25.044;2022-10-16T06:07:50;30;29;
73517;PMS5003;61766;60.318;25.044;2022-10-16T06:10:16;31;29;
73517;PMS5003;61766;60.318;25.044;2022-10-16T06:12:41;34;33;
73517;PMS5003;61766;60.318;25.044;2022-10-16T06:15:07;31;30;
73517;PMS5003;61766;60.318;25.044;2022-10-16T06:17:33;38;34;
73517;PMS5003;61766;60.318;25.044;2022-10-16T06:19:58;34;33;
73517;PMS5003;61766;60.318;25.044;2022-10-16T06:22:24;35;34;
73517;PMS5003;61766;60.318;25.044;2022-10-16T06:24:49;42;40;
73517;PMS5003;61766;60.318;25.044;2022-10-16T06:27:15;35;32;
73517;PMS5003;61766;60.318;25.044;2022-10-16T06:29:40;35;35;
73517;PMS5003;61766;60.318;25.044;2022-10-16T06:32:05;34;30;
73517;PMS5003;61766;60.318;25.044;2022-10-16T06:34:31;34;31;
73517;PMS5003;61766;60.318;25.044;2022-10-16T06:36:57;37;36;
73517;PMS5003;61766;60.318;25.044;2022-10-16T06:39:23;43;42;
73517;PMS5003;61766;60.318;25.044;2022-10-16T06:41:48;35;33;
73517;PMS5003;61766;60.318;25.044;2022-10-16T06:44:13;34;34;
73517;PMS5003;61766;60.318;25.044;2022-10-16T06:46:38;37;36;
73517;PMS5003;61766;60.318;25.044;2022-10-16T06:49:04;42;39;
73517;PMS5003;61766;60.318;25.044;2022-10-16T06:51:29;38;38;
73517;PMS5003;61766;60.318;25.044;2022-10-16T06:53:55;39;37;
73517;PMS5003;61766;60.318;25.044;2022-10-16T06:56:21;31;31;
73517;PMS5003;61766;60.318;25.044;2022-10-16T06:58:46;38;38;
73517;PMS5003;61766;60.318;25.044;2022-10-16T07:01:12;33;31;
73517;PMS5003;61766;60.318;25.044;2022-10-16T07:03:37;37;35;
73517;PMS5003;61766;60.318;25.044;2022-10-16T07:06:02;31;31;
73517;PMS5003;61766;60.318;25.044;2022-10-16T07:08:27;31;31;
73517;PMS5003;61766;60.318;25.044;2022-10-16T07:13:17;26;25;
73517;PMS5003;61766;60.318;25.044;2022-10-16T07:15:43;35;34;
73517;PMS5003;61766;60.318;25.044;2022-10-16T07:18:08;35;34;
73517;PMS5003;61766;60.318;25.044;2022-10-16T07:20:34;35;33;
73517;PMS5003;61766;60.318;25.044;2022-10-16T07:22:59;37;33;
73517;PMS5003;61766;60.318;25.044;2022-10-16T07:25:24;36;35;
73517;PMS5003;61766;60.318;25.044;2022-10-16T07:27:50;32;31;
73517;PMS5003;61766;60.318;25.044;2022-10-16T07:30:16;36;36;
73517;PMS5003;61766;60.318;25.044;2022-10-16T07:32:41;34;34;
73517;PMS5003;61766;60.318;25.044;2022-10-16T07:35:06;26;26;
73517;PMS5003;61766;60.318;25.044;2022-10-16T07:37:32;27;27;
73517;PMS5003;61766;60.318;25.044;2022-10-16T07:39:57;29;27;
73517;PMS5003;61766;60.318;25.044;2022-10-16T07:42:23;24;23;
73517;PMS5003;61766;60.318;25.044;2022-10-16T07:44:48;24;24;
73517;PMS5003;61766;60.318;25.044;2022-10-16T07:47:13;32;29;
73517;PMS5003;61766;60.318;25.044;2022-10-16T07:49:39;26;25;
73517;PMS5003;61766;60.318;25.044;2022-10-16T07:52:04;32;31;
73517;PMS5003;61766;60.318;25.044;2022-10-16T07:54:29;33;32;
73517;PMS5003;61766;60.318;25.044;2022-10-16T07:56:55;33;33;
73517;PMS5003;61766;60.318;25.044;2022-10-16T07:59:20;35;32;
73517;PMS5003;61766;60.318;25.044;2022-10-16T08:01:46;29;27;
73517;PMS5003;61766;60.318;25.044;2022-10-16T08:04:11;43;42;
73517;PMS5003;61766;60.318;25.044;2022-10-16T08:06:37;40;39;
73517;PMS5003;61766;60.318;25.044;2022-10-16T08:09:03;41;38;
73517;PMS5003;61766;60.318;25.044;2022-10-16T08:11:29;40;38;
73517;PMS5003;61766;60.318;25.044;2022-10-16T08:13:54;45;42;
73517;PMS5003;61766;60.318;25.044;2022-10-16T08:16:20;40;38;
73517;PMS5003;61766;60.318;25.044;2022-10-16T08:18:45;39;37;
73517;PMS5003;61766;60.318;25.044;2022-10-16T08:21:13;39;38;
73517;PMS5003;61766;60.318;25.044;2022-10-16T08:23:35;39;37;
73517;PMS5003;61766;60.318;25.044;2022-10-16T08:26:02;36;35;
73517;PMS5003;61766;60.318;25.044;2022-10-16T08:28:26;43;41;
73517;PMS5003;61766;60.318;25.044;2022-10-16T08:30:52;42;39;
73517;PMS5003;61766;60.318;25.044;2022-10-16T08:33:18;42;37;
73517;PMS5003;61766;60.318;25.044;2022-10-16T08:38:08;44;41;
73517;PMS5003;61766;60.318;25.044;2022-10-16T08:40:35;35;33;
73517;PMS5003;61766;60.318;25.044;2022-10-16T08:43:06;41;40;
73517;PMS5003;61766;60.318;25.044;2022-10-16T08:45:28;41;39;
73517;PMS5003;61766;60.318;25.044;2022-10-16T08:47:53;39;38;
73517;PMS5003;61766;60.318;25.044;2022-10-16T08:50:23;40;38;
73517;PMS5003;61766;60.318;25.044;2022-10-16T08:52:41;36;35;
73517;PMS5003;61766;60.318;25.044;2022-10-16T08:55:06;31;31;
73517;PMS5003;61766;60.318;25.044;2022-10-16T08:57:32;41;39;
73517;PMS5003;61766;60.318;25.044;2022-10-16T08:59:58;33;31;
73517;PMS5003;61766;60.318;25.044;2022-10-16T09:02:23;41;39;
73517;PMS5003;61766;60.318;25.044;2022-10-16T09:04:50;41;38;
73517;PMS5003;61766;60.318;25.044;2022-10-16T09:07:13;37;37;
73517;PMS5003;61766;60.318;25.044;2022-10-16T09:09:43;42;42;
73517;PMS5003;61766;60.318;25.044;2022-10-16T09:12:05;44;43;
73517;PMS5003;61766;60.318;25.044;2022-10-16T09:14:34;36;35;
73517;PMS5003;61766;60.318;25.044;2022-10-16T09:16:56;38;36;
73517;PMS5003;61766;60.318;25.044;2022-10-16T09:19:21;42;40;
73517;PMS5003;61766;60.318;25.044;2022-10-16T09:21:45;42;40;
73517;PMS5003;61766;60.318;25.044;2022-10-16T09:24:11;39;38;
73517;PMS5003;61766;60.318;25.044;2022-10-16T09:26:36;48;44;
73517;PMS5003;61766;60.318;25.044;2022-10-16T09:29:02;49;44;
73517;PMS5003;61766;60.318;25.044;2022-10-16T09:31:27;46;45;
73517;PMS5003;61766;60.318;25.044;2022-10-16T09:33:53;49;43;
73517;PMS5003;61766;60.318;25.044;2022-10-16T09:36:18;45;42;
73517;PMS5003;61766;60.318;25.044;2022-10-16T09:38:43;41;38;
73517;PMS5003;61766;60.318;25.044;2022-10-16T09:41:13;42;42;
73517;PMS5003;61766;60.318;25.044;2022-10-16T09:43:35;39;38;
73517;PMS5003;61766;60.318;25.044;2022-10-16T09:46:00;50;48;
73517;PMS5003;61766;60.318;25.044;2022-10-16T09:48:25;48;44;
73517;PMS5003;61766;60.318;25.044;2022-10-16T09:50:56;41;40;
73517;PMS5003;61766;60.318;25.044;2022-10-16T09:53:16;45;44;
73517;PMS5003;61766;60.318;25.044;2022-10-16T09:55:48;48;45;
73517;PMS5003;61766;60.318;25.044;2022-10-16T09:58:11;45;44;
73517;PMS5003;61766;60.318;25.044;2022-10-16T10:00:31;38;37;
73517;PMS5003;61766;60.318;25.044;2022-10-16T10:02:57;45;44;
73517;PMS5003;61766;60.318;25.044;2022-10-16T10:05:24;47;43;
73517;PMS5003;61766;60.318;25.044;2022-10-16T10:07:53;46;43;
73517;PMS5003;61766;60.318;25.044;2022-10-16T10:12:39;42;40;
73517;PMS5003;61766;60.318;25.044;2022-10-16T10:15:04;39;38;
73517;PMS5003;61766;60.318;25.044;2022-10-16T10:17:30;44;41;
73517;PMS5003;61766;60.318;25.044;2022-10-16T10:19:56;43;41;
73517;PMS5003;61766;60.318;25.044;2022-10-16T10:22:23;42;38;
73517;PMS5003;61766;60.318;25.044;2022-10-16T10:27:13;45;43;
73517;PMS5003;61766;60.318;25.044;2022-10-16T10:29:41;37;37;
73517;PMS5003;61766;60.318;25.044;2022-10-16T10:32:05;39;34;
73517;PMS5003;61766;60.318;25.044;2022-10-16T10:36:56;39;38;
73517;PMS5003;61766;60.318;25.044;2022-10-16T10:39:19;39;38;
73517;PMS5003;61766;60.318;25.044;2022-10-16T10:41:53;39;38;
73517;PMS5003;61766;60.318;25.044;2022-10-16T10:44:11;44;41;
73517;PMS5003;61766;60.318;25.044;2022-10-16T10:46:36;39;39;
73517;PMS5003;61766;60.318;25.044;2022-10-16T10:49:06;35;33;
73517;PMS5003;61766;60.318;25.044;2022-10-16T10:51:27;46;42;
73517;PMS5003;61766;60.318;25.044;2022-10-16T10:53:52;40;39;
73517;PMS5003;61766;60.318;25.044;2022-10-16T10:56:19;33;33;
73517;PMS5003;61766;60.318;25.044;2022-10-16T10:58:48;52;44;
73517;PMS5003;61766;60.318;25.044;2022-10-16T11:01:08;40;39;
73517;PMS5003;61766;60.318;25.044;2022-10-16T11:03:39;45;44;
73517;PMS5003;61766;60.318;25.044;2022-10-16T11:05:58;36;35;
73517;PMS5003;61766;60.318;25.044;2022-10-16T11:08:25;41;36;
73517;PMS5003;61766;60.318;25.044;2022-10-16T11:10:51;45;41;
73517;PMS5003;61766;60.318;25.044;2022-10-16T11:13:17;39;38;
73517;PMS5003;61766;60.318;25.044;2022-10-16T11:15:39;37;35;
73517;PMS5003;61766;60.318;25.044;2022-10-16T11:18:05;40;38;
73517;PMS5003;61766;60.318;25.044;2022-10-16T11:20:32;40;38;
73517;PMS5003;61766;60.318;25.044;2022-10-16T11:22:56;41;41;
73517;PMS5003;61766;60.318;25.044;2022-10-16T11:25:21;41;38;
73517;PMS5003;61766;60.318;25.044;2022-10-16T11:27:48;40;40;
73517;PMS5003;61766;60.318;25.044;2022-10-16T11:30:14;43;41;
73517;PMS5003;61766;60.318;25.044;2022-10-16T11:32:39;42;38;
73517;PMS5003;61766;60.318;25.044;2022-10-16T11:35:05;35;34;
73517;PMS5003;61766;60.318;25.044;2022-10-16T11:37:30;35;33;
73517;PMS5003;61766;60.318;25.044;2022-10-16T11:39:54;41;40;
73517;PMS5003;61766;60.318;25.044;2022-10-16T11:42:20;41;40;
73517;PMS5003;61766;60.318;25.044;2022-10-16T11:44:48;41;40;
73517;PMS5003;61766;60.318;25.044;2022-10-16T11:47:12;43;37;
73517;PMS5003;61766;60.318;25.044;2022-10-16T11:49:35;43;42;
73517;PMS5003;61766;60.318;25.044;2022-10-16T11:52:03;47;45;
73517;PMS5003;61766;60.318;25.044;2022-10-16T11:54:28;40;39;
73517;PMS5003;61766;60.318;25.044;2022-10-16T11:56:52;40;39;
73517;PMS5003;61766;60.318;25.044;2022-10-16T11:59:19;39;39;
73517;PMS5003;61766;60.318;25.044;2022-10-16T12:01:43;38;38;
73517;PMS5003;61766;60.318;25.044;2022-10-16T12:04:14;41;37;
73517;PMS5003;61766;60.318;25.044;2022-10-16T12:06:34;40;36;
73517;PMS5003;61766;60.318;25.044;2022-10-16T12:08:59;33;31;
73517;PMS5003;61766;60.318;25.044;2022-10-16T12:13:49;38;37;
73517;PMS5003;61766;60.318;25.044;2022-10-16T12:16:21;37;36;
73517;PMS5003;61766;60.318;25.044;2022-10-16T12:18:41;39;35;
73517;PMS5003;61766;60.318;25.044;2022-10-16T12:21:06;45;45;
73517;PMS5003;61766;60.318;25.044;2022-10-16T12:23:32;39;39;
73517;PMS5003;61766;60.318;25.044;2022-10-16T12:25:57;37;36;
73517;PMS5003;61766;60.318;25.044;2022-10-16T12:28:26;46;40;
73517;PMS5003;61766;60.318;25.044;2022-10-16T12:30:52;32;32;
73517;PMS5003;61766;60.318;25.044;2022-10-16T12:33:19;39;38;
73517;PMS5003;61766;60.318;25.044;2022-10-16T12:35:43;38;37;
73517;PMS5003;61766;60.318;25.044;2022-10-16T12:38:05;40;39;
73517;PMS5003;61766;60.318;25.044;2022-10-16T12:40:30;43;42;
73517;PMS5003;61766;60.318;25.044;2022-10-16T12:42:55;32;31;
73517;PMS5003;61766;60.318;25.044;2022-10-16T12:45:26;39;39;
73517;PMS5003;61766;60.318;25.044;2022-10-16T12:47:48;40;38;
73517;PMS5003;61766;60.318;25.044;2022-10-16T12:52:38;42;40;
73517;PMS5003;61766;60.318;25.044;2022-10-16T12:55:03;38;36;
73517;PMS5003;61766;60.318;25.044;2022-10-16T12:57:33;38;38;
73517;PMS5003;61766;60.318;25.044;2022-10-16T12:59:57;36;36;
73517;PMS5003;61766;60.318;25.044;2022-10-16T13:02:28;44;42;
73517;PMS5003;61766;60.318;25.044;2022-10-16T13:04:49;39;39;
73517;PMS5003;61766;60.318;25.044;2022-10-16T13:07:17;32;31;
73517;PMS5003;61766;60.318;25.044;2022-10-16T13:09:40;40;38;
73517;PMS5003;61766;60.318;25.044;2022-10-16T13:12:06;36;35;
73517;PMS5003;61766;60.318;25.044;2022-10-16T13:14:32;40;37;
73517;PMS5003;61766;60.318;25.044;2022-10-16T13:16:54;37;35;
73517;PMS5003;61766;60.318;25.044;2022-10-16T13:19:20;33;33;
73517;PMS5003;61766;60.318;25.044;2022-10-16T13:21:45;40;39;
73517;PMS5003;61766;60.318;25.044;2022-10-16T13:24:13;31;29;
73517;PMS5003;61766;60.318;25.044;2022-10-16T13:26:37;41;40;
73517;PMS5003;61766;60.318;25.044;2022-10-16T13:28:59;41;36;
73517;PMS5003;61766;60.318;25.044;2022-10-16T13:31:25;41;35;
73517;PMS5003;61766;60.318;25.044;2022-10-16T13:33:51;49;47;
73517;PMS5003;61766;60.318;25.044;2022-10-16T13:36:18;44;41;
73517;PMS5003;61766;60.318;25.044;2022-10-16T13:38:42;44;42;
73517;PMS5003;61766;60.318;25.044;2022-10-16T13:41:13;42;42;
73517;PMS5003;61766;60.318;25.044;2022-10-16T13:43:33;39;39;
73517;PMS5003;61766;60.318;25.044;2022-10-16T13:45:58;44;41;
73517;PMS5003;61766;60.318;25.044;2022-10-16T13:48:23;40;38;
73517;PMS5003;61766;60.318;25.044;2022-10-16T13:53:13;44;40;
73517;PMS5003;61766;60.318;25.044;2022-10-16T13:55:38;41;41;
73517;PMS5003;61766;60.318;25.044;2022-10-16T13:58:05;44;43;
73517;PMS5003;61766;60.318;25.044;2022-10-16T14:00:30;44;39;
73517;PMS5003;61766;60.318;25.044;2022-10-16T14:02:57;42;39;
73517;PMS5003;61766;60.318;25.044;2022-10-16T14:05:20;44;42;
73517;PMS5003;61766;60.318;25.044;2022-10-16T14:07:47;41;39;
73517;PMS5003;61766;60.318;25.044;2022-10-16T14:12:37;34;32;
73517;PMS5003;61766;60.318;25.044;2022-10-16T14:15:02;45;44;
73517;PMS5003;61766;60.318;25.044;2022-10-16T14:17:27;32;30;
73517;PMS5003;61766;60.318;25.044;2022-10-16T14:19:54;35;33;
73517;PMS5003;61766;60.318;25.044;2022-10-16T14:22:23;36;33;
73517;PMS5003;61766;60.318;25.044;2022-10-16T14:24:43;33;32;
73517;PMS5003;61766;60.318;25.044;2022-10-16T14:29:35;38;37;
73517;PMS5003;61766;60.318;25.044;2022-10-16T14:32:01;35;35;
73517;PMS5003;61766;60.318;25.044;2022-10-16T14:34:27;33;32;
73517;PMS5003;61766;60.318;25.044;2022-10-16T14:36:51;37;34;
73517;PMS5003;61766;60.318;25.044;2022-10-16T14:39:17;39;36;
73517;PMS5003;61766;60.318;25.044;2022-10-16T14:41:43;34;34;
73517;PMS5003;61766;60.318;25.044;2022-10-16T14:44:09;36;35;
73517;PMS5003;61766;60.318;25.044;2022-10-16T14:46:34;32;32;
73517;PMS5003;61766;60.318;25.044;2022-10-16T14:49:00;34;32;
73517;PMS5003;61766;60.318;25.044;2022-10-16T14:51:24;34;33;
73517;PMS5003;61766;60.318;25.044;2022-10-16T14:53:49;29;28;
73517;PMS5003;61766;60.318;25.044;2022-10-16T14:56:16;31;29;
73517;PMS5003;61766;60.318;25.044;2022-10-16T14:58:40;33;31;
73517;PMS5003;61766;60.318;25.044;2022-10-16T15:01:06;29;27;
73517;PMS5003;61766;60.318;25.044;2022-10-16T15:03:31;31;31;
73517;PMS5003;61766;60.318;25.044;2022-10-16T15:05:56;24;23;
73517;PMS5003;61766;60.318;25.044;2022-10-16T15:08:22;30;29;
73517;PMS5003;61766;60.318;25.044;2022-10-16T15:10:47;34;33;
73517;PMS5003;61766;60.318;25.044;2022-10-16T15:13:13;33;32;
73517;PMS5003;61766;60.318;25.044;2022-10-16T15:15:38;37;34;
73517;PMS5003;61766;60.318;25.044;2022-10-16T15:18:03;30;28;
73517;PMS5003;61766;60.318;25.044;2022-10-16T15:20:28;32;30;
73517;PMS5003;61766;60.318;25.044;2022-10-16T15:22:53;29;28;
73517;PMS5003;61766;60.318;25.044;2022-10-16T15:27:44;21;21;
73517;PMS5003;61766;60.318;25.044;2022-10-16T15:30:10;21;21;
73517;PMS5003;61766;60.318;25.044;2022-10-16T15:32:35;13;13;
73517;PMS5003;61766;60.318;25.044;2022-10-16T15:35:00;17;17;
73517;PMS5003;61766;60.318;25.044;2022-10-16T15:37:26;15;15;
73517;PMS5003;61766;60.318;25.044;2022-10-16T15:39:51;18;17;
73517;PMS5003;61766;60.318;25.044;2022-10-16T15:42:17;16;16;
73517;PMS5003;61766;60.318;25.044;2022-10-16T15:44:43;17;17;
73517;PMS5003;61766;60.318;25.044;2022-10-16T15:47:08;19;18;
73517;PMS5003;61766;60.318;25.044;2022-10-16T15:49:34;20;19;
73517;PMS5003;61766;60.318;25.044;2022-10-16T15:51:59;20;20;
73517;PMS5003;61766;60.318;25.044;2022-10-16T15:54:25;25;24;
73517;PMS5003;61766;60.318;25.044;2022-10-16T15:56:50;24;23;
73517;PMS5003;61766;60.318;25.044;2022-10-16T15:59:15;24;23;
73517;PMS5003;61766;60.318;25.044;2022-10-16T16:01:41;20;20;
73517;PMS5003;61766;60.318;25.044;2022-10-16T16:04:07;24;24;
73517;PMS5003;61766;60.318;25.044;2022-10-16T16:06:33;27;26;
73517;PMS5003;61766;60.318;25.044;2022-10-16T16:08:59;22;22;
73517;PMS5003;61766;60.318;25.044;2022-10-16T16:11:24;17;17;
73517;PMS5003;61766;60.318;25.044;2022-10-16T16:13:50;22;22;
73517;PMS5003;61766;60.318;25.044;2022-10-16T16:16:16;22;22;